Radiosonde details



Informationen :

Serial : V3010023
Type : Vaisala RS41-SGP
Date of production : 24.07.2023
Frequency : 403.000MHz
Launchsite : Galeao
Nearest town : Niterói, BR (13.7km)

Altitude (Max) : 10317m at 2026-09-01 11:59:03
Speed (Max) : 113km/h at altitude 6194m

Average speed : 73km/h
Average ascent rate : 6m/s
Average descent rate : 0m/s
Ascent rate (Max) : 10.9m/s
Descent rate (Max): 2.3m/s

First frame :
PU1XMG-16 at 2026-09-01 11:32:46 at altitude 480m (OG: 438m)
Last frame :
PU1XMG-16 at 2026-09-01 11:59:03 at altitude 10317m (OG: 10275m)

Flighttime : 26m17s
Ascent time : 26m17s
Descent time : 0s
Uptime : -
Killtimer : -

Distance (Straight line distance): 31km

Distance (Route):


Frames : 277


Measurement :

Temperature : -35.9°C
Humidity : 39.9%
Pressure : 273.4hPa


Vertical profile (SkewT) :


Elevation profile :



Receiving stations :


Receiver Frames First received Last received
PU1XMG-16 277 2026-09-01 11:32:46 2026-09-01 11:59:03

Share per receiver :



All frames :


Receiver Date Latitude Longitude Direction Speed Altitude Climb Temperature Humidity Pressure Voltage Killtimer Uptime BKT XDATA
PU1XMG-162026-09-01 11:59:03-22.93019-42.97997119°64km/h10317m4.4m/s-35.9°C39.9%273.4hPa0V00:00:0000:00:0000:00:00
PU1XMG-162026-09-01 11:58:57-22.92972-42.98085120°57km/h10278m5.7m/s-35.5°C39.9%274.9hPa0V00:00:0000:00:0000:00:00
PU1XMG-162026-09-01 11:58:51-22.92935-42.98158112°60km/h10245m6.0m/s-35.3°C40.3%276.3hPa0V00:00:0000:00:0000:00:00
PU1XMG-162026-09-01 11:58:46-22.92901-42.98247120°66km/h10217m3.0m/s-35.0°C41.8%277.4hPa0V00:00:0000:00:0000:00:00
PU1XMG-162026-09-01 11:58:41-22.92862-42.98320116°64km/h10185m5.7m/s-34.8°C39.8%278.8hPa0V00:00:0000:00:0000:00:00
PU1XMG-162026-09-01 11:58:36-22.92834-42.98397114°62km/h10154m5.7m/s-34.5°C43.7%280.1hPa0V00:00:0000:00:0000:00:00
PU1XMG-162026-09-01 11:58:30-22.92794-42.98480120°51km/h10125m4.8m/s-34.3°C44.2%281.3hPa0V00:00:0000:00:0000:00:00
PU1XMG-162026-09-01 11:58:24-22.92768-42.98548101°64km/h10091m5.6m/s-34.0°C45.9%282.5hPa0V00:00:0000:00:0000:00:00
PU1XMG-162026-09-01 11:58:18-22.92747-42.98651114°62km/h10054m7.5m/s-33.8°C49.0%283.8hPa0V00:00:0000:00:0000:00:00
PU1XMG-162026-09-01 11:58:14-22.92718-42.98723117°57km/h10016m4.1m/s-33.4°C51.2%285.4hPa0V00:00:0000:00:0000:00:00
PU1XMG-162026-09-01 11:58:06-22.92671-42.98814113°53km/h9982m8.6m/s-33.4°C60.1%286.7hPa0V00:00:0000:00:0000:00:00
PU1XMG-162026-09-01 11:58:00-22.92644-42.98910113°57km/h9928m6.3m/s-33.4°C68.1%288.8hPa0V00:00:0000:00:0000:00:00
PU1XMG-162026-09-01 11:57:55-22.92612-42.98991111°58km/h9903m2.5m/s-33.1°C69.7%290.0hPa0V00:00:0000:00:0000:00:00
PU1XMG-162026-09-01 11:57:49-22.92590-42.99072107°51km/h9866m10.4m/s-32.9°C66.3%291.6hPa0V00:00:0000:00:0000:00:00
PU1XMG-162026-09-01 11:57:45-22.92566-42.99144115°51km/h9831m5.0m/s-32.5°C66.7%293.1hPa0V00:00:0000:00:0000:00:00
PU1XMG-162026-09-01 11:57:38-22.92532-42.99215128°53km/h9798m8.2m/s-32.2°C64.7%294.4hPa0V00:00:0000:00:0000:00:00
PU1XMG-162026-09-01 11:57:33-22.92496-42.99284107°53km/h9768m9.6m/s-31.9°C64.1%295.7hPa0V00:00:0000:00:0000:00:00
PU1XMG-162026-09-01 11:57:26-22.92476-42.99373103°47km/h9728m6.2m/s-31.6°C66.5%297.3hPa0V00:00:0000:00:0000:00:00
PU1XMG-162026-09-01 11:57:21-22.92451-42.99435125°46km/h9693m7.9m/s-31.4°C69.5%298.8hPa0V00:00:0000:00:0000:00:00
PU1XMG-162026-09-01 11:57:16-22.92405-42.99516115°62km/h9653m2.3m/s-31.1°C73.6%300.6hPa0V00:00:0000:00:0000:00:00
PU1XMG-162026-09-01 11:57:11-22.92366-42.99611117°86km/h9619m7.4m/s-30.8°C71.5%302.0hPa0V00:00:0000:00:0000:00:00
PU1XMG-162026-09-01 11:57:05-22.92326-42.99712111°62km/h9580m7.5m/s-30.4°C71.0%303.7hPa0V00:00:0000:00:0000:00:00
PU1XMG-162026-09-01 11:56:59-22.92302-42.99787108°49km/h9550m4.0m/s-30.1°C68.8%304.9hPa0V00:00:0000:00:0000:00:00
PU1XMG-162026-09-01 11:56:53-22.92253-42.99884120°77km/h9516m8.7m/s-29.8°C68.6%306.4hPa0V00:00:0000:00:0000:00:00
PU1XMG-162026-09-01 11:56:49-22.92222-42.99980105°71km/h9486m5.0m/s-29.6°C70.4%307.6hPa0V00:00:0000:00:0000:00:00
PU1XMG-162026-09-01 11:56:43-22.92184-43.00065129°62km/h9455m9.8m/s-29.4°C69.4%309.0hPa0V00:00:0000:00:0000:00:00
PU1XMG-162026-09-01 11:56:38-22.92135-43.00161121°91km/h9419m6.7m/s-29.2°C72.0%310.5hPa0V00:00:0000:00:0000:00:00
PU1XMG-162026-09-01 11:56:32-22.92080-43.00286118°75km/h9385m8.2m/s-29.0°C73.0%311.9hPa0V00:00:0000:00:0000:00:00
PU1XMG-162026-09-01 11:56:26-22.92044-43.00370114°71km/h9357m5.8m/s-28.8°C74.9%313.2hPa0V00:00:0000:00:0000:00:00
PU1XMG-162026-09-01 11:56:21-22.91996-43.00485116°78km/h9318m8.1m/s-28.5°C73.4%314.8hPa0V00:00:0000:00:0000:00:00
PU1XMG-162026-09-01 11:56:16-22.91953-43.00583115°77km/h9292m5.6m/s-28.3°C79.4%316.1hPa0V00:00:0000:00:0000:00:00
PU1XMG-162026-09-01 11:56:10-22.91902-43.00712116°88km/h9262m5.3m/s-28.1°C78.4%317.4hPa0V00:00:0000:00:0000:00:00
PU1XMG-162026-09-01 11:56:04-22.91858-43.00824111°64km/h9223m3.9m/s-27.7°C78.5%319.1hPa0V00:00:0000:00:0000:00:00
PU1XMG-162026-09-01 11:55:58-22.91808-43.00928114°82km/h9194m2.5m/s-27.5°C78.8%320.5hPa0V00:00:0000:00:0000:00:00
PU1XMG-162026-09-01 11:55:53-22.91771-43.01028106°68km/h9172m7.8m/s-27.3°C77.1%321.6hPa0V00:00:0000:00:0000:00:00
PU1XMG-162026-09-01 11:55:47-22.91750-43.01114117°62km/h9141m7.8m/s-27.1°C74.3%322.8hPa0V00:00:0000:00:0000:00:00
PU1XMG-162026-09-01 11:55:41-22.91703-43.01215109°73km/h9098m10.9m/s-26.7°C70.0%324.7hPa0V00:00:0000:00:0000:00:00
PU1XMG-162026-09-01 11:55:36-22.91646-43.01342125°84km/h9065m3.4m/s-26.4°C68.4%326.3hPa0V00:00:0000:00:0000:00:00
PU1XMG-162026-09-01 11:55:30-22.91592-43.01437114°66km/h9027m4.6m/s-26.1°C70.7%327.9hPa0V00:00:0000:00:0000:00:00
PU1XMG-162026-09-01 11:55:24-22.91557-43.01536113°84km/h9000m7.2m/s-26.0°C74.9%329.0hPa0V00:00:0000:00:0000:00:00
PU1XMG-162026-09-01 11:55:19-22.91514-43.01627116°62km/h8970m5.9m/s-25.7°C74.9%330.5hPa0V00:00:0000:00:0000:00:00
PU1XMG-162026-09-01 11:55:14-22.91488-43.01706118°68km/h8947m5.0m/s-25.5°C75.3%331.7hPa0V00:00:0000:00:0000:00:00
PU1XMG-162026-09-01 11:55:09-22.91427-43.01817110°75km/h8907m7.3m/s-25.3°C72.1%333.4hPa0V00:00:0000:00:0000:00:00
PU1XMG-162026-09-01 11:55:03-22.91402-43.01911110°64km/h8872m8.7m/s-25.0°C71.0%334.9hPa0V00:00:0000:00:0000:00:00
PU1XMG-162026-09-01 11:54:59-22.91377-43.02008106°75km/h8842m3.3m/s-24.8°C71.8%336.3hPa0V00:00:0000:00:0000:00:00
PU1XMG-162026-09-01 11:54:53-22.91358-43.02108109°60km/h8800m10.8m/s-24.5°C70.2%338.2hPa0V00:00:0000:00:0000:00:00
PU1XMG-162026-09-01 11:54:46-22.91322-43.02225110°73km/h8757m4.1m/s-24.1°C71.3%340.3hPa0V00:00:0000:00:0000:00:00
PU1XMG-162026-09-01 11:54:41-22.91295-43.02336107°71km/h8719m7.0m/s-23.8°C71.7%342.0hPa0V00:00:0000:00:0000:00:00
PU1XMG-162026-09-01 11:54:36-22.91269-43.02423114°71km/h8690m9.6m/s-23.7°C72.3%343.3hPa0V00:00:0000:00:0000:00:00
PU1XMG-162026-09-01 11:54:30-22.91237-43.02524103°78km/h8660m7.2m/s-23.6°C72.2%344.7hPa0V00:00:0000:00:0000:00:00
PU1XMG-162026-09-01 11:54:25-22.91218-43.0264297°75km/h8615m9.5m/s-23.4°C70.9%346.8hPa0V00:00:0000:00:0000:00:00
PU1XMG-162026-09-01 11:54:20-22.91207-43.0273398°57km/h8583m7.0m/s-23.1°C67.8%348.3hPa0V00:00:0000:00:0000:00:00
PU1XMG-162026-09-01 11:54:14-22.91183-43.02839108°69km/h8550m10.1m/s-22.8°C66.0%350.0hPa0V00:00:0000:00:0000:00:00
PU1XMG-162026-09-01 11:54:09-22.91166-43.0292491°60km/h8519m5.5m/s-22.5°C64.5%351.5hPa0V00:00:0000:00:0000:00:00
PU1XMG-162026-09-01 11:54:03-22.91159-43.03041101°84km/h8485m8.6m/s-22.3°C62.8%353.1hPa0V00:00:0000:00:0000:00:00
PU1XMG-162026-09-01 11:53:57-22.91151-43.0317495°82km/h8448m7.3m/s-22.0°C61.8%355.0hPa0V00:00:0000:00:0000:00:00
PU1XMG-162026-09-01 11:53:51-22.91136-43.03277104°71km/h8415m6.1m/s-21.9°C62.7%356.6hPa0V00:00:0000:00:0000:00:00
PU1XMG-162026-09-01 11:53:47-22.91121-43.0338496°78km/h8383m9.8m/s-21.8°C65.4%358.1hPa0V00:00:0000:00:0000:00:00
PU1XMG-162026-09-01 11:53:41-22.91113-43.0349295°73km/h8343m5.4m/s-21.6°C69.7%360.1hPa0V00:00:0000:00:0000:00:00
PU1XMG-162026-09-01 11:53:36-22.91105-43.0360493°86km/h8304m8.2m/s-21.5°C70.6%361.9hPa0V00:00:0000:00:0000:00:00
PU1XMG-162026-09-01 11:53:31-22.91099-43.0372193°78km/h8273m6.6m/s-21.3°C71.2%363.5hPa0V00:00:0000:00:0000:00:00
PU1XMG-162026-09-01 11:53:25-22.91092-43.0382893°82km/h8240m8.0m/s-21.1°C71.7%365.1hPa0V00:00:0000:00:0000:00:00
PU1XMG-162026-09-01 11:53:20-22.91086-43.0396493°95km/h8195m5.4m/s-20.9°C75.4%367.3hPa0V00:00:0000:00:0000:00:00
PU1XMG-162026-09-01 11:53:15-22.91079-43.0408494°78km/h8156m7.2m/s-20.6°C76.9%369.3hPa0V00:00:0000:00:0000:00:00
PU1XMG-162026-09-01 11:53:10-22.91069-43.0419198°80km/h8123m5.9m/s-20.4°C76.8%370.7hPa0V00:00:0000:00:0000:00:00
PU1XMG-162026-09-01 11:53:04-22.91065-43.0433692°93km/h8087m6.2m/s-20.2°C77.1%372.6hPa0V00:00:0000:00:0000:00:00
PU1XMG-162026-09-01 11:52:59-22.91056-43.04451101°84km/h8054m8.7m/s-19.9°C76.5%374.3hPa0V00:00:0000:00:0000:00:00
PU1XMG-162026-09-01 11:52:53-22.91040-43.0458893°88km/h8017m4.8m/s-19.6°C77.3%376.2hPa0V00:00:0000:00:0000:00:00
PU1XMG-162026-09-01 11:52:42-22.91010-43.0482585°80km/h7951m10.6m/s-19.3°C76.3%379.4hPa0V00:00:0000:00:0000:00:00
PU1XMG-162026-09-01 11:52:36-22.91009-43.04946103°75km/h7914m5.9m/s-19.3°C81.0%381.4hPa0V00:00:0000:00:0000:00:00
PU1XMG-162026-09-01 11:52:31-22.90984-43.05047108°69km/h7880m5.1m/s-19.5°C86.8%383.1hPa0V00:00:0000:00:0000:00:00
PU1XMG-162026-09-01 11:52:25-22.90980-43.0516488°66km/h7839m5.1m/s-19.2°C86.7%385.2hPa0V00:00:0000:00:0000:00:00
PU1XMG-162026-09-01 11:52:19-22.90964-43.05262101°69km/h7802m9.6m/s-18.9°C83.6%387.1hPa0V00:00:0000:00:0000:00:00
PU1XMG-162026-09-01 11:52:13-22.90958-43.0538295°68km/h7761m5.3m/s-18.7°C84.6%389.3hPa0V00:00:0000:00:0000:00:00
PU1XMG-162026-09-01 11:52:08-22.90953-43.0546990°66km/h7727m4.3m/s-18.5°C84.7%390.9hPa0V00:00:0000:00:0000:00:00
PU1XMG-162026-09-01 11:52:02-22.90944-43.05569101°57km/h7692m9.4m/s-18.8°C88.6%392.6hPa0V00:00:0000:00:0000:00:00
PU1XMG-162026-09-01 11:51:55-22.90933-43.05688110°78km/h7648m4.7m/s-18.4°C88.4%395.2hPa0V00:00:0000:00:0000:00:00
PU1XMG-162026-09-01 11:51:50-22.90908-43.0578496°71km/h7618m4.3m/s-18.3°C90.7%396.7hPa0V00:00:0000:00:0000:00:00
PU1XMG-162026-09-01 11:51:44-22.90898-43.0589893°78km/h7576m8.0m/s-18.0°C88.3%398.9hPa0V00:00:0000:00:0000:00:00
PU1XMG-162026-09-01 11:51:40-22.90899-43.06008101°75km/h7545m5.9m/s-17.7°C87.7%400.6hPa0V00:00:0000:00:0000:00:00
PU1XMG-162026-09-01 11:51:35-22.90879-43.0610393°73km/h7516m4.5m/s-17.4°C86.4%402.3hPa0V00:00:0000:00:0000:00:00
PU1XMG-162026-09-01 11:51:28-22.90873-43.0622297°69km/h7477m6.0m/s-17.1°C83.2%404.3hPa0V00:00:0000:00:0000:00:00
PU1XMG-162026-09-01 11:51:23-22.90866-43.0635099°82km/h7438m5.4m/s-16.7°C82.3%406.4hPa0V00:00:0000:00:0000:00:00
PU1XMG-162026-09-01 11:51:16-22.90846-43.06482107°80km/h7401m6.6m/s-16.4°C80.2%408.4hPa0V00:00:0000:00:0000:00:00
PU1XMG-162026-09-01 11:51:11-22.90825-43.0662198°88km/h7362m8.6m/s-16.1°C82.6%410.5hPa0V00:00:0000:00:0000:00:00
PU1XMG-162026-09-01 11:51:05-22.90807-43.0676496°95km/h7324m6.9m/s-15.8°C82.6%412.7hPa0V00:00:0000:00:0000:00:00
PU1XMG-162026-09-01 11:50:59-22.90787-43.06874100°68km/h7294m6.2m/s-15.5°C81.2%414.3hPa0V00:00:0000:00:0000:00:00
PU1XMG-162026-09-01 11:50:55-22.90766-43.06989106°97km/h7265m7.1m/s-15.3°C80.4%416.0hPa0V00:00:0000:00:0000:00:00
PU1XMG-162026-09-01 11:50:49-22.90754-43.0713396°78km/h7233m6.8m/s-15.0°C80.2%417.7hPa0V00:00:0000:00:0000:00:00
PU1XMG-162026-09-01 11:50:44-22.90734-43.07259100°104km/h7200m8.8m/s-14.8°C78.5%419.4hPa0V00:00:0000:00:0000:00:00
PU1XMG-162026-09-01 11:50:38-22.90729-43.0741692°89km/h7164m5.2m/s-14.6°C79.7%421.3hPa0V00:00:0000:00:0000:00:00
PU1XMG-162026-09-01 11:50:31-22.90701-43.07553110°86km/h7123m6.9m/s-14.3°C78.7%423.6hPa0V00:00:0000:00:0000:00:00
PU1XMG-162026-09-01 11:50:26-22.90658-43.07696111°78km/h7091m3.4m/s-14.6°C85.5%425.4hPa0V00:00:0000:00:0000:00:00
PU1XMG-162026-09-01 11:50:20-22.90630-43.07834100°97km/h7058m6.5m/s-14.8°C88.9%427.3hPa0V00:00:0000:00:0000:00:00
PU1XMG-162026-09-01 11:50:13-22.90597-43.07955111°69km/h7019m5.5m/s-14.9°C84.8%429.6hPa0V00:00:0000:00:0000:00:00
PU1XMG-162026-09-01 11:50:08-22.90564-43.08063116°97km/h6991m6.2m/s-14.6°C83.1%431.0hPa0V00:00:0000:00:0000:00:00
PU1XMG-162026-09-01 11:50:03-22.90512-43.08200103°89km/h6956m8.9m/s-14.3°C79.7%433.1hPa0V00:00:0000:00:0000:00:00
PU1XMG-162026-09-01 11:49:58-22.90490-43.08312105°78km/h6927m4.2m/s-14.0°C78.5%434.6hPa0V00:00:0000:00:0000:00:00
PU1XMG-162026-09-01 11:49:53-22.90450-43.08431113°108km/h6898m7.1m/s-13.8°C75.2%436.3hPa0V00:00:0000:00:0000:00:00
PU1XMG-162026-09-01 11:49:47-22.90401-43.08561116°91km/h6869m6.7m/s-13.5°C70.8%438.0hPa0V00:00:0000:00:0000:00:00
PU1XMG-162026-09-01 11:49:42-22.90347-43.08697118°82km/h6828m8.6m/s-13.2°C64.9%440.3hPa0V00:00:0000:00:0000:00:00
PU1XMG-162026-09-01 11:49:37-22.90289-43.08792119°80km/h6795m6.0m/s-13.1°C60.3%442.2hPa0V00:00:0000:00:0000:00:00
PU1XMG-162026-09-01 11:49:30-22.90239-43.08912125°78km/h6760m4.8m/s-12.8°C59.1%444.3hPa0V00:00:0000:00:0000:00:00
PU1XMG-162026-09-01 11:49:25-22.90169-43.09028113°91km/h6726m4.1m/s-12.5°C56.4%446.2hPa0V00:00:0000:00:0000:00:00
PU1XMG-162026-09-01 11:49:19-22.90107-43.09158126°80km/h6688m9.3m/s-12.3°C51.8%448.4hPa0V00:00:0000:00:0000:00:00
PU1XMG-162026-09-01 11:49:13-22.90034-43.09264123°82km/h6654m7.9m/s-12.0°C50.9%450.4hPa0V00:00:0000:00:0000:00:00
PU1XMG-162026-09-01 11:49:06-22.89977-43.09387112°88km/h6614m7.0m/s-11.7°C46.7%452.8hPa0V00:00:0000:00:0000:00:00
PU1XMG-162026-09-01 11:49:01-22.89914-43.09506130°93km/h6581m4.9m/s-11.4°C46.3%454.8hPa0V00:00:0000:00:0000:00:00
PU1XMG-162026-09-01 11:48:55-22.89841-43.09631115°89km/h6537m4.1m/s-11.0°C42.7%457.3hPa0V00:00:0000:00:0000:00:00
PU1XMG-162026-09-01 11:48:49-22.89771-43.09760124°95km/h6507m9.4m/s-10.8°C40.9%459.2hPa0V00:00:0000:00:0000:00:00
PU1XMG-162026-09-01 11:48:43-22.89703-43.09877124°88km/h6461m8.3m/s-10.4°C33.0%461.8hPa0V00:00:0000:00:0000:00:00
PU1XMG-162026-09-01 11:48:38-22.89637-43.09986127°93km/h6427m6.7m/s-10.1°C29.4%463.9hPa0V00:00:0000:00:0000:00:00
PU1XMG-162026-09-01 11:48:32-22.89574-43.10092116°95km/h6397m6.6m/s-9.9°C28.2%465.7hPa0V00:00:0000:00:0000:00:00
PU1XMG-162026-09-01 11:48:27-22.89524-43.10207117°93km/h6366m8.2m/s-9.6°C26.6%467.7hPa0V00:00:0000:00:0000:00:00
PU1XMG-162026-09-01 11:48:22-22.89438-43.10353125°100km/h6324m7.8m/s-9.3°C24.3%470.1hPa0V00:00:0000:00:0000:00:00
PU1XMG-162026-09-01 11:48:16-22.89381-43.10463125°86km/h6294m4.9m/s-9.0°C24.8%472.0hPa0V00:00:0000:00:0000:00:00
PU1XMG-162026-09-01 11:48:11-22.89318-43.10573119°99km/h6261m8.7m/s-8.7°C25.8%473.8hPa0V00:00:0000:00:0000:00:00
PU1XMG-162026-09-01 11:48:06-22.89238-43.10719118°99km/h6225m5.2m/s-8.5°C24.1%476.2hPa0V00:00:0000:00:0000:00:00
PU1XMG-162026-09-01 11:48:00-22.89166-43.10868124°111km/h6194m5.2m/s-8.2°C22.8%477.9hPa0V00:00:0000:00:0000:00:00
PU1XMG-162026-09-01 11:47:54-22.89095-43.11004117°86km/h6155m4.1m/s-7.8°C22.3%480.6hPa0V00:00:0000:00:0000:00:00
PU1XMG-162026-09-01 11:47:48-22.89035-43.11125124°110km/h6131m6.9m/s-7.6°C22.3%482.1hPa0V00:00:0000:00:0000:00:00
PU1XMG-162026-09-01 11:47:42-22.88962-43.11260116°95km/h6094m6.4m/s-7.3°C24.5%484.5hPa0V00:00:0000:00:0000:00:00
PU1XMG-162026-09-01 11:47:38-22.88903-43.11367125°86km/h6057m5.9m/s-7.0°C24.5%486.5hPa0V00:00:0000:00:0000:00:00
PU1XMG-162026-09-01 11:47:32-22.88821-43.11497120°97km/h6019m8.5m/s-6.8°C24.5%488.8hPa0V00:00:0000:00:0000:00:00
PU1XMG-162026-09-01 11:47:27-22.88768-43.11622122°104km/h5989m5.6m/s-6.4°C24.1%490.8hPa0V00:00:0000:00:0000:00:00
PU1XMG-162026-09-01 11:47:20-22.88687-43.11764115°88km/h5958m6.2m/s-6.2°C23.7%492.8hPa0V00:00:0000:00:0000:00:00
PU1XMG-162026-09-01 11:47:15-22.88635-43.11894118°91km/h5917m6.6m/s-5.8°C22.9%495.3hPa0V00:00:0000:00:0000:00:00
PU1XMG-162026-09-01 11:47:10-22.88583-43.12016113°95km/h5883m4.6m/s-5.6°C22.5%497.4hPa0V00:00:0000:00:0000:00:00
PU1XMG-162026-09-01 11:47:05-22.88523-43.12134121°104km/h5849m5.0m/s-5.3°C21.6%499.6hPa0V00:00:0000:00:0000:00:00
PU1XMG-162026-09-01 11:46:58-22.88454-43.12285119°97km/h5813m9.7m/s-5.0°C22.5%501.9hPa0V00:00:0000:00:0000:00:00
PU1XMG-162026-09-01 11:46:53-22.88391-43.12411114°84km/h5768m5.1m/s-4.7°C20.9%504.8hPa0V00:00:0000:00:0000:00:00
PU1XMG-162026-09-01 11:46:47-22.88346-43.12550111°88km/h5727m4.2m/s-4.3°C20.1%507.4hPa0V00:00:0000:00:0000:00:00
PU1XMG-162026-09-01 11:46:41-22.88279-43.12696122°97km/h5684m5.3m/s-3.9°C18.1%510.2hPa0V00:00:0000:00:0000:00:00
PU1XMG-162026-09-01 11:46:36-22.88225-43.12803122°84km/h5652m5.9m/s-3.9°C14.2%512.1hPa0V00:00:0000:00:0000:00:00
PU1XMG-162026-09-01 11:46:30-22.88164-43.12931117°97km/h5620m6.9m/s-3.9°C9.8%514.3hPa0V00:00:0000:00:0000:00:00
PU1XMG-162026-09-01 11:46:24-22.88109-43.13064112°106km/h5590m6.3m/s-4.3°C48.8%516.2hPa0V00:00:0000:00:0000:00:00
PU1XMG-162026-09-01 11:46:14-22.88017-43.13337112°100km/h5517m5.4m/s-4.2°C73.8%521.2hPa0V00:00:0000:00:0000:00:00
PU1XMG-162026-09-01 11:46:08-22.87969-43.13495106°95km/h5475m7.1m/s-4.4°C81.8%523.8hPa0V00:00:0000:00:0000:00:00
PU1XMG-162026-09-01 11:46:01-22.87933-43.13664100°106km/h5438m8.2m/s-5.4°C95.3%526.5hPa0V00:00:0000:00:0000:00:00
PU1XMG-162026-09-01 11:45:57-22.87901-43.13806111°108km/h5403m5.9m/s-5.5°C96.3%528.7hPa0V00:00:0000:00:0000:00:00
PU1XMG-162026-09-01 11:45:52-22.87856-43.13933111°89km/h5370m5.4m/s-5.2°C94.1%530.9hPa0V00:00:0000:00:0000:00:00
PU1XMG-162026-09-01 11:45:46-22.87816-43.14060103°82km/h5332m5.4m/s-4.8°C90.0%533.6hPa0V00:00:0000:00:0000:00:00
PU1XMG-162026-09-01 11:45:41-22.87779-43.14167120°84km/h5289m6.1m/s-4.5°C83.6%536.6hPa0V00:00:0000:00:0000:00:00
PU1XMG-162026-09-01 11:45:34-22.87732-43.14290108°91km/h5248m7.2m/s-4.2°C80.0%539.1hPa0V00:00:0000:00:0000:00:00
PU1XMG-162026-09-01 11:45:30-22.87692-43.14400114°86km/h5215m9.3m/s-4.0°C78.9%541.3hPa0V00:00:0000:00:0000:00:00
PU1XMG-162026-09-01 11:45:24-22.87632-43.14525112°82km/h5176m4.7m/s-3.6°C77.5%544.2hPa0V00:00:0000:00:0000:00:00
PU1XMG-162026-09-01 11:45:19-22.87574-43.14640122°88km/h5135m7.0m/s-3.3°C76.1%547.0hPa0V00:00:0000:00:0000:00:00
PU1XMG-162026-09-01 11:45:12-22.87525-43.14751112°68km/h5093m7.1m/s-3.2°C77.1%549.8hPa0V00:00:0000:00:0000:00:00
PU1XMG-162026-09-01 11:45:07-22.87484-43.14856123°88km/h5062m5.4m/s-3.0°C76.6%551.9hPa0V00:00:0000:00:0000:00:00
PU1XMG-162026-09-01 11:45:00-22.87404-43.14979120°91km/h5023m7.1m/s-2.7°C75.2%554.6hPa0V00:00:0000:00:0000:00:00
PU1XMG-162026-09-01 11:44:55-22.87351-43.15089121°97km/h4993m3.9m/s-2.4°C74.4%556.7hPa0V00:00:0000:00:0000:00:00
PU1XMG-162026-09-01 11:44:49-22.87284-43.15203122°75km/h4958m3.2m/s-2.2°C76.0%559.1hPa0V00:00:0000:00:0000:00:00
PU1XMG-162026-09-01 11:44:44-22.87235-43.15293117°80km/h4935m5.9m/s-2.1°C75.5%560.7hPa0V00:00:0000:00:0000:00:00
PU1XMG-162026-09-01 11:44:39-22.87172-43.15410128°89km/h4899m6.9m/s-1.8°C74.7%563.3hPa0V00:00:0000:00:0000:00:00
PU1XMG-162026-09-01 11:44:33-22.87116-43.15506117°80km/h4871m5.9m/s-1.6°C74.3%565.2hPa0V00:00:0000:00:0000:00:00
PU1XMG-162026-09-01 11:44:27-22.87046-43.15618122°75km/h4833m5.8m/s-1.3°C74.8%568.0hPa0V00:00:0000:00:0000:00:00
PU1XMG-162026-09-01 11:44:22-22.86993-43.15720126°93km/h4805m5.1m/s-1.1°C75.4%570.0hPa0V00:00:0000:00:0000:00:00
PU1XMG-162026-09-01 11:44:16-22.86926-43.15827125°77km/h4768m4.6m/s-0.8°C74.0%572.8hPa0V00:00:0000:00:0000:00:00
PU1XMG-162026-09-01 11:44:11-22.86871-43.15926121°78km/h4741m3.7m/s-0.6°C69.5%574.6hPa0V00:00:0000:00:0000:00:00
PU1XMG-162026-09-01 11:44:08-22.86808-43.16014131°88km/h4714m8.7m/s-0.5°C66.8%576.5hPa0V00:00:0000:00:0000:00:00
PU1XMG-162026-09-01 11:44:00-22.86734-43.16133129°88km/h4679m7.6m/s-0.3°C63.8%579.3hPa0V00:00:0000:00:0000:00:00
PU1XMG-162026-09-01 11:43:54-22.86660-43.16240135°77km/h4642m6.0m/s-0.2°C66.4%581.9hPa0V00:00:0000:00:0000:00:00
PU1XMG-162026-09-01 11:43:48-22.86579-43.16353124°88km/h4607m4.7m/s-0.0°C68.7%584.4hPa0V00:00:0000:00:0000:00:00
PU1XMG-162026-09-01 11:43:43-22.86507-43.16454130°100km/h4578m8.1m/s0.0°C70.3%586.3hPa0V00:00:0000:00:0000:00:00
PU1XMG-162026-09-01 11:43:38-22.86424-43.16564128°69km/h4541m5.4m/s0.2°C75.3%589.1hPa0V00:00:0000:00:0000:00:00
PU1XMG-162026-09-01 11:43:32-22.86365-43.16646131°82km/h4510m9.0m/s0.4°C79.0%591.4hPa0V00:00:0000:00:0000:00:00
PU1XMG-162026-09-01 11:43:22-22.86219-43.16829135°84km/h4442m4.4m/s0.6°C84.8%596.4hPa0V00:00:0000:00:0000:00:00
PU1XMG-162026-09-01 11:43:16-22.86143-43.16940128°91km/h4406m8.4m/s0.8°C85.6%599.2hPa0V00:00:0000:00:0000:00:00
PU1XMG-162026-09-01 11:43:09-22.86058-43.17044126°80km/h4374m10.0m/s1.0°C88.4%601.7hPa0V00:00:0000:00:0000:00:00
PU1XMG-162026-09-01 11:43:03-22.85997-43.17167122°80km/h4340m5.3m/s1.2°C88.9%604.3hPa0V00:00:0000:00:0000:00:00
PU1XMG-162026-09-01 11:42:54-22.85866-43.17350129°88km/h4285m4.5m/s1.6°C88.2%608.3hPa0V00:00:0000:00:0000:00:00
PU1XMG-162026-09-01 11:42:49-22.85809-43.17439124°78km/h4254m6.3m/s1.6°C91.2%610.7hPa0V00:00:0000:00:0000:00:00
PU1XMG-162026-09-01 11:42:42-22.85740-43.17548127°89km/h4219m6.6m/s1.5°C96.0%613.3hPa0V00:00:0000:00:0000:00:00
PU1XMG-162026-09-01 11:42:37-22.85679-43.17641124°86km/h4188m5.6m/s1.6°C97.5%615.6hPa0V00:00:0000:00:0000:00:00
PU1XMG-162026-09-01 11:42:32-22.85620-43.17739118°86km/h4157m4.8m/s1.8°C96.4%617.8hPa0V00:00:0000:00:0000:00:00
PU1XMG-162026-09-01 11:42:28-22.85558-43.17839128°82km/h4128m5.5m/s2.1°C94.7%620.1hPa0V00:00:0000:00:0000:00:00
PU1XMG-162026-09-01 11:42:23-22.85490-43.17938131°97km/h4100m5.8m/s2.3°C93.1%622.2hPa0V00:00:0000:00:0000:00:00
PU1XMG-162026-09-01 11:42:18-22.85429-43.18040118°88km/h4075m4.7m/s2.6°C92.4%624.3hPa0V00:00:0000:00:0000:00:00
PU1XMG-162026-09-01 11:42:12-22.85351-43.18168125°89km/h4038m6.3m/s2.7°C93.3%627.1hPa0V00:00:0000:00:0000:00:00
PU1XMG-162026-09-01 11:42:05-22.85271-43.18295121°88km/h4001m5.2m/s3.0°C93.1%629.9hPa0V00:00:0000:00:0000:00:00
PU1XMG-162026-09-01 11:42:01-22.85210-43.18405124°93km/h3970m7.3m/s3.3°C91.9%632.2hPa0V00:00:0000:00:0000:00:00
PU1XMG-162026-09-01 11:41:55-22.85152-43.18508123°82km/h3939m7.9m/s3.5°C91.6%634.7hPa0V00:00:0000:00:0000:00:00
PU1XMG-162026-09-01 11:41:49-22.85084-43.18639115°99km/h3904m6.2m/s3.8°C91.0%637.5hPa0V00:00:0000:00:0000:00:00
PU1XMG-162026-09-01 11:41:43-22.85013-43.18780120°89km/h3865m10.1m/s3.9°C93.0%640.5hPa0V00:00:0000:00:0000:00:00
PU1XMG-162026-09-01 11:41:38-22.84966-43.18878124°88km/h3830m5.0m/s4.2°C91.6%643.2hPa0V00:00:0000:00:0000:00:00
PU1XMG-162026-09-01 11:41:32-22.84882-43.19018119°99km/h3792m7.6m/s4.5°C90.1%646.2hPa0V00:00:0000:00:0000:00:00
PU1XMG-162026-09-01 11:41:28-22.84829-43.19127120°95km/h3762m7.1m/s4.8°C88.7%648.7hPa0V00:00:0000:00:0000:00:00
PU1XMG-162026-09-01 11:41:21-22.84759-43.19264117°95km/h3726m6.5m/s5.1°C86.4%651.5hPa0V00:00:0000:00:0000:00:00
PU1XMG-162026-09-01 11:41:16-22.84701-43.19371119°88km/h3694m6.1m/s5.2°C86.7%653.9hPa0V00:00:0000:00:0000:00:00
PU1XMG-162026-09-01 11:41:11-22.84640-43.19480129°89km/h3663m5.2m/s5.2°C90.1%656.4hPa0V00:00:0000:00:0000:00:00
PU1XMG-162026-09-01 11:41:05-22.84558-43.19604127°93km/h3628m8.7m/s5.5°C88.4%659.3hPa0V00:00:0000:00:0000:00:00
PU1XMG-162026-09-01 11:41:00-22.84488-43.19704131°89km/h3595m6.6m/s5.7°C87.5%661.9hPa0V00:00:0000:00:0000:00:00
PU1XMG-162026-09-01 11:40:54-22.84404-43.19827129°89km/h3559m5.8m/s6.0°C86.1%664.8hPa0V00:00:0000:00:0000:00:00
PU1XMG-162026-09-01 11:40:49-22.84344-43.19924126°91km/h3529m6.0m/s6.3°C84.3%667.3hPa0V00:00:0000:00:0000:00:00
PU1XMG-162026-09-01 11:40:44-22.84267-43.20044129°80km/h3497m6.0m/s6.6°C83.1%669.9hPa0V00:00:0000:00:0000:00:00
PU1XMG-162026-09-01 11:40:38-22.84196-43.20141126°91km/h3468m4.6m/s6.9°C81.7%672.2hPa0V00:00:0000:00:0000:00:00
PU1XMG-162026-09-01 11:40:33-22.84125-43.20235130°97km/h3441m5.7m/s7.1°C79.3%674.6hPa0V00:00:0000:00:0000:00:00
PU1XMG-162026-09-01 11:40:27-22.84038-43.20353136°95km/h3402m6.5m/s7.4°C77.2%677.6hPa0V00:00:0000:00:0000:00:00
PU1XMG-162026-09-01 11:40:22-22.83959-43.20450130°91km/h3371m7.7m/s7.7°C76.0%680.3hPa0V00:00:0000:00:0000:00:00
PU1XMG-162026-09-01 11:40:16-22.83877-43.20570131°91km/h3329m5.9m/s8.0°C75.3%683.6hPa0V00:00:0000:00:0000:00:00
PU1XMG-162026-09-01 11:40:12-22.83805-43.20668130°91km/h3295m7.3m/s8.3°C73.8%686.5hPa0V00:00:0000:00:0000:00:00
PU1XMG-162026-09-01 11:40:05-22.83714-43.20775139°84km/h3257m7.6m/s8.6°C72.2%689.5hPa0V00:00:0000:00:0000:00:00
PU1XMG-162026-09-01 11:40:00-22.83647-43.20862129°91km/h3228m5.0m/s8.9°C71.4%692.0hPa0V00:00:0000:00:0000:00:00
PU1XMG-162026-09-01 11:39:55-22.83576-43.20952130°88km/h3196m8.8m/s9.2°C70.1%694.8hPa0V00:00:0000:00:0000:00:00
PU1XMG-162026-09-01 11:39:50-22.83508-43.21045130°86km/h3162m7.4m/s9.4°C69.1%697.4hPa0V00:00:0000:00:0000:00:00
PU1XMG-162026-09-01 11:39:44-22.83413-43.21151132°89km/h3122m6.2m/s9.7°C68.3%700.8hPa0V00:00:0000:00:0000:00:00
PU1XMG-162026-09-01 11:39:39-22.83340-43.21241132°91km/h3091m10.0m/s10.0°C67.0%703.5hPa0V00:00:0000:00:0000:00:00
PU1XMG-162026-09-01 11:39:35-22.83257-43.21327135°86km/h3057m6.5m/s10.3°C65.9%706.3hPa0V00:00:0000:00:0000:00:00
PU1XMG-162026-09-01 11:39:30-22.83188-43.21408140°80km/h3027m6.0m/s10.5°C65.0%708.9hPa0V00:00:0000:00:0000:00:00
PU1XMG-162026-09-01 11:39:23-22.83099-43.21511129°78km/h2990m6.0m/s10.6°C64.6%711.9hPa0V00:00:0000:00:0000:00:00
PU1XMG-162026-09-01 11:39:19-22.83026-43.21594142°89km/h2950m8.1m/s10.9°C62.3%715.2hPa0V00:00:0000:00:0000:00:00
PU1XMG-162026-09-01 11:39:12-22.82928-43.21698130°80km/h2915m7.4m/s11.0°C63.9%718.4hPa0V00:00:0000:00:0000:00:00
PU1XMG-162026-09-01 11:39:07-22.82846-43.21799135°82km/h2878m7.2m/s11.0°C67.1%721.5hPa0V00:00:0000:00:0000:00:00
PU1XMG-162026-09-01 11:39:01-22.82763-43.21875138°95km/h2842m6.2m/s11.2°C65.7%724.7hPa0V00:00:0000:00:0000:00:00
PU1XMG-162026-09-01 11:38:56-22.82687-43.21959140°82km/h2811m6.5m/s11.4°C65.6%727.3hPa0V00:00:0000:00:0000:00:00
PU1XMG-162026-09-01 11:38:50-22.82596-43.22066134°86km/h2772m6.2m/s11.6°C66.6%730.8hPa0V00:00:0000:00:0000:00:00
PU1XMG-162026-09-01 11:38:45-22.82519-43.22156129°89km/h2742m8.2m/s11.7°C66.9%733.5hPa0V00:00:0000:00:0000:00:00
PU1XMG-162026-09-01 11:38:39-22.82434-43.22257132°82km/h2706m5.9m/s11.9°C68.3%736.5hPa0V00:00:0000:00:0000:00:00
PU1XMG-162026-09-01 11:38:33-22.82339-43.22368129°97km/h2668m4.9m/s11.8°C70.4%739.9hPa0V00:00:0000:00:0000:00:00
PU1XMG-162026-09-01 11:38:28-22.82262-43.22459135°84km/h2636m8.4m/s11.6°C72.6%742.6hPa0V00:00:0000:00:0000:00:00
PU1XMG-162026-09-01 11:38:22-22.82165-43.22564140°86km/h2594m6.9m/s11.4°C74.8%746.4hPa0V00:00:0000:00:0000:00:00
PU1XMG-162026-09-01 11:38:18-22.82089-43.22641135°75km/h2564m6.4m/s11.5°C75.9%749.2hPa0V00:00:0000:00:0000:00:00
PU1XMG-162026-09-01 11:38:11-22.82008-43.22732136°71km/h2526m5.2m/s11.8°C75.9%752.6hPa0V00:00:0000:00:0000:00:00
PU1XMG-162026-09-01 11:38:06-22.81942-43.22806137°75km/h2495m6.9m/s11.9°C76.0%755.4hPa0V00:00:0000:00:0000:00:00
PU1XMG-162026-09-01 11:38:00-22.81867-43.22896138°73km/h2459m6.5m/s12.1°C76.5%758.5hPa0V00:00:0000:00:0000:00:00
PU1XMG-162026-09-01 11:37:55-22.81804-43.22965137°75km/h2426m5.5m/s12.4°C75.2%761.4hPa0V00:00:0000:00:0000:00:00
PU1XMG-162026-09-01 11:37:49-22.81728-43.23044137°71km/h2393m5.9m/s12.3°C78.1%764.5hPa0V00:00:0000:00:0000:00:00
PU1XMG-162026-09-01 11:37:44-22.81674-43.23102130°55km/h2365m8.0m/s12.4°C78.1%767.2hPa0V00:00:0000:00:0000:00:00
PU1XMG-162026-09-01 11:37:38-22.81619-43.23168135°58km/h2328m6.7m/s12.7°C77.1%770.6hPa0V00:00:0000:00:0000:00:00
PU1XMG-162026-09-01 11:37:33-22.81570-43.23226131°64km/h2297m7.2m/s12.8°C77.5%773.7hPa0V00:00:0000:00:0000:00:00
PU1XMG-162026-09-01 11:37:28-22.81508-43.23295134°69km/h2270m6.7m/s12.9°C78.0%775.9hPa0V00:00:0000:00:0000:00:00
PU1XMG-162026-09-01 11:37:23-22.81457-43.23356134°55km/h2238m6.9m/s13.0°C78.9%778.6hPa0V00:00:0000:00:0000:00:00
PU1XMG-162026-09-01 11:37:17-22.81406-43.23421135°55km/h2201m6.1m/s13.3°C77.9%782.0hPa0V00:00:0000:00:0000:00:00
PU1XMG-162026-09-01 11:37:12-22.81368-43.23475130°44km/h2173m6.3m/s13.6°C76.6%784.8hPa0V00:00:0000:00:0000:00:00
PU1XMG-162026-09-01 11:37:08-22.81326-43.23525136°53km/h2143m6.6m/s13.7°C76.4%787.6hPa0V00:00:0000:00:0000:00:00
PU1XMG-162026-09-01 11:37:01-22.81268-43.23588133°47km/h2104m7.1m/s14.0°C75.4%791.1hPa0V00:00:0000:00:0000:00:00
PU1XMG-162026-09-01 11:36:55-22.81210-43.23645135°53km/h2069m6.3m/s14.4°C74.3%794.6hPa0V00:00:0000:00:0000:00:00
PU1XMG-162026-09-01 11:36:50-22.81160-43.23699129°53km/h2039m6.2m/s14.5°C73.9%797.5hPa0V00:00:0000:00:0000:00:00
PU1XMG-162026-09-01 11:36:44-22.81120-43.23752130°47km/h2004m5.6m/s14.7°C74.9%800.6hPa0V00:00:0000:00:0000:00:00
PU1XMG-162026-09-01 11:36:38-22.81062-43.23809144°47km/h1971m8.7m/s15.0°C74.1%803.4hPa0V00:00:0000:00:0000:00:00
PU1XMG-162026-09-01 11:36:33-22.81010-43.23866133°55km/h1935m6.8m/s15.3°C73.6%807.2hPa0V00:00:0000:00:0000:00:00
PU1XMG-162026-09-01 11:36:21-22.80934-43.23981121°51km/h1864m6.9m/s15.7°C72.8%813.7hPa0V00:00:0000:00:0000:00:00
PU1XMG-162026-09-01 11:36:16-22.80893-43.24035135°46km/h1835m4.8m/s15.9°C72.5%816.5hPa0V00:00:0000:00:0000:00:00
PU1XMG-162026-09-01 11:36:10-22.80844-43.24089129°49km/h1802m7.2m/s15.7°C75.9%819.7hPa0V00:00:0000:00:0000:00:00
PU1XMG-162026-09-01 11:35:54-22.80742-43.24220124°31km/h1708m5.8m/s15.6°C81.4%828.8hPa0V00:00:0000:00:0000:00:00
PU1XMG-162026-09-01 11:35:49-22.80709-43.24259142°33km/h1673m6.2m/s15.9°C79.8%832.3hPa0V00:00:0000:00:0000:00:00
PU1XMG-162026-09-01 11:35:43-22.80680-43.24280147°29km/h1645m5.0m/s15.7°C81.4%835.2hPa0V00:00:0000:00:0000:00:00
PU1XMG-162026-09-01 11:35:37-22.80643-43.24303152°31km/h1605m7.4m/s15.1°C86.3%839.0hPa0V00:00:0000:00:0000:00:00
PU1XMG-162026-09-01 11:35:32-22.80616-43.24316171°15km/h1568m5.2m/s15.1°C88.9%842.6hPa0V00:00:0000:00:0000:00:00
PU1XMG-162026-09-01 11:35:26-22.80595-43.24323167°16km/h1526m9.5m/s15.2°C89.4%846.7hPa0V00:00:0000:00:0000:00:00
PU1XMG-162026-09-01 11:35:20-22.80573-43.24330150°16km/h1487m6.7m/s15.2°C91.9%850.9hPa0V00:00:0000:00:0000:00:00
PU1XMG-162026-09-01 11:35:15-22.80551-43.24335168°22km/h1453m6.8m/s15.5°C90.9%853.9hPa0V00:00:0000:00:0000:00:00
PU1XMG-162026-09-01 11:35:11-22.80530-43.24332189°15km/h1418m7.3m/s15.3°C94.8%857.7hPa0V00:00:0000:00:0000:00:00
PU1XMG-162026-09-01 11:35:05-22.80519-43.24325168°7km/h1376m5.4m/s15.7°C93.9%861.6hPa0V00:00:0000:00:0000:00:00
PU1XMG-162026-09-01 11:34:58-22.80510-43.24329204°11km/h1339m4.9m/s15.9°C92.7%865.5hPa0V00:00:0000:00:0000:00:00
PU1XMG-162026-09-01 11:34:52-22.80496-43.24320223°15km/h1301m6.9m/s16.2°C91.4%869.2hPa0V00:00:0000:00:0000:00:00
PU1XMG-162026-09-01 11:34:47-22.80482-43.24318177°16km/h1269m7.2m/s16.4°C90.3%872.5hPa0V00:00:0000:00:0000:00:00
PU1XMG-162026-09-01 11:34:42-22.80461-43.24323160°18km/h1239m8.6m/s16.6°C89.1%875.6hPa0V00:00:0000:00:0000:00:00
PU1XMG-162026-09-01 11:34:36-22.80454-43.2434072°9km/h1195m6.5m/s16.9°C87.4%880.0hPa0V00:00:0000:00:0000:00:00
PU1XMG-162026-09-01 11:34:26-22.80468-43.2438162°16km/h1121m4.9m/s17.6°C84.5%887.9hPa0V00:00:0000:00:0000:00:00
PU1XMG-162026-09-01 11:34:20-22.80477-43.2440073°7km/h1086m6.2m/s17.9°C81.3%891.5hPa0V00:00:0000:00:0000:00:00
PU1XMG-162026-09-01 11:34:15-22.80481-43.2442063°18km/h1060m3.2m/s18.2°C80.8%894.4hPa0V00:00:0000:00:0000:00:00
PU1XMG-162026-09-01 11:34:10-22.80491-43.2444565°24km/h1025m8.3m/s18.5°C79.0%898.4hPa0V00:00:0000:00:0000:00:00
PU1XMG-162026-09-01 11:34:03-22.80506-43.2447151°15km/h979m6.3m/s18.9°C77.3%902.7hPa0V00:00:0000:00:0000:00:00
PU1XMG-162026-09-01 11:33:57-22.80520-43.2448827°16km/h936m6.2m/s19.2°C74.6%907.1hPa0V00:00:0000:00:0000:00:00
PU1XMG-162026-09-01 11:33:52-22.80534-43.2450133°16km/h908m7.2m/s19.5°C73.1%910.4hPa0V00:00:0000:00:0000:00:00
PU1XMG-162026-09-01 11:33:47-22.80555-43.2451012°20km/h882m5.4m/s19.5°C71.4%913.3hPa0V00:00:0000:00:0000:00:00
PU1XMG-162026-09-01 11:33:42-22.80582-43.2453244°27km/h843m8.1m/s19.7°C0%917.1hPa0V00:00:0000:00:0000:00:00
PU1XMG-162026-09-01 11:33:35-22.80616-43.2456336°35km/h800m7.6m/s19.9°C0%921.5hPa0V00:00:0000:00:0000:00:00
PU1XMG-162026-09-01 11:33:26-22.80687-43.2461442°26km/h735m7.8m/s0°C0%928.4hPa0V00:00:0000:00:0000:00:00
PU1XMG-162026-09-01 11:33:20-22.80718-43.2463031°35km/h703m5.4m/s0°C0%931.9hPa0V00:00:0000:00:0000:00:00
PU1XMG-162026-09-01 11:33:14-22.80759-43.2465231°31km/h667m6.0m/s0°C0%0hPa0V00:00:0000:00:0000:00:00
PU1XMG-162026-09-01 11:33:09-22.80790-43.2467133°24km/h632m8.8m/s0°C0%0hPa0V00:00:0000:00:0000:00:00
PU1XMG-162026-09-01 11:33:04-22.80822-43.2469436°27km/h589m6.4m/s0°C0%0hPa0V00:00:0000:00:0000:00:00
PU1XMG-162026-09-01 11:32:58-22.80860-43.2472126°35km/h552m5.1m/s0°C0%0hPa0V00:00:0000:00:0000:00:00
PU1XMG-162026-09-01 11:32:52-22.80891-43.2473640°22km/h514m6.3m/s0°C0%0hPa0V00:00:0000:00:0000:00:00
PU1XMG-162026-09-01 11:32:46-22.80910-43.2475642°26km/h480m6.8m/s0°C0%0hPa0V00:00:0000:00:0000:00:00


GPX KML Map

© wettersonde.net (DO2JMG) - 2026  -  -